Time;durP1;ratioP1;P1;durP2;ratioP2;P2;SDS_P1;SDS_P2;PMS_P1;PMS_P2;Temp;Humidity;BMP_temperature;BMP_pressure;BME280_temperature;BME280_humidity;BME280_pressure;Samples;Min_cycle;Max_cycle;Signal;HPM_P1;HPM_P2
2022/05/19 00:01:13;;;;;;;4.10;1.45;;;;;;;-145.69;67.53;71318.81;5072386;28;20600;-76
2022/05/19 00:03:39;;;;;;;3.92;1.75;;;;;;;-145.69;67.72;71320.81;5072894;28;20203;-76
2022/05/19 00:06:07;;;;;;;3.30;1.77;;;;;;;-145.69;67.63;71310.84;5072660;28;20202;-76
2022/05/19 00:08:34;;;;;;;4.40;1.52;;;;;;;-145.69;66.86;71320.81;5072597;28;20214;-76
2022/05/19 00:11:06;;;;;;;6.80;1.70;;;;;;;-145.69;67.92;71308.88;5072744;28;20260;-76
2022/05/19 00:13:33;;;;;;;5.40;1.67;;;;;;;-145.69;68.41;71318.81;5072714;28;20253;-76
2022/05/19 00:15:59;;;;;;;3.92;1.70;;;;;;;-145.69;68.97;71326.78;5072123;28;20958;-76
2022/05/19 00:18:26;;;;;;;2.40;1.83;;;;;;;-145.69;68.48;71338.72;5072621;28;20203;-76
2022/05/19 00:20:53;;;;;;;10.23;2.50;;;;;;;-145.69;68.87;71332.75;5072573;28;20199;-76
2022/05/19 00:23:20;;;;;;;5.20;2.05;;;;;;;-145.69;68.87;71338.72;5072189;28;20210;-75
2022/05/19 00:25:47;;;;;;;4.38;1.88;;;;;;;-145.69;69.04;71326.78;5072611;28;20194;-76
2022/05/19 00:28:15;;;;;;;2.55;1.73;;;;;;;-145.69;68.18;71322.81;5072500;28;20194;-76
2022/05/19 00:30:42;;;;;;;6.10;1.75;;;;;;;-145.69;67.67;71316.84;5074872;28;20206;-76
2022/05/19 00:33:09;;;;;;;6.22;1.70;;;;;;;-145.69;68.32;71326.78;5056181;28;20234;-76
2022/05/19 00:35:36;;;;;;;4.25;1.70;;;;;;;-145.69;68.27;71326.78;5056084;28;20291;-75
2022/05/19 00:38:02;;;;;;;9.02;2.30;;;;;;;-145.69;67.70;71322.81;5068182;28;20646;-75
2022/05/19 00:40:29;;;;;;;6.22;1.55;;;;;;;-145.69;68.29;71320.81;5076272;28;20194;-76
2022/05/19 00:42:56;;;;;;;5.32;1.42;;;;;;;-145.69;67.02;71318.81;5075928;28;20198;-76
2022/05/19 00:45:25;;;;;;;3.30;1.75;;;;;;;-145.69;66.65;71316.84;5075864;28;20649;-75
2022/05/19 00:47:57;;;;;;;4.20;1.70;;;;;;;-145.69;66.60;71318.81;5076329;28;20293;-76
2022/05/19 00:50:32;;;;;;;3.72;1.73;;;;;;;-145.69;66.33;71312.84;5075733;28;20288;-76
2022/05/19 00:53:05;;;;;;;7.60;1.75;;;;;;;-145.69;68.17;71330.75;5076176;28;20636;-75
2022/05/19 00:55:36;;;;;;;2.80;1.42;;;;;;;-145.69;67.56;71328.78;5076050;28;20217;-76
2022/05/19 00:58:10;;;;;;;2.60;1.70;;;;;;;-145.69;67.00;71320.81;5075623;28;20222;-76
2022/05/19 01:00:38;;;;;;;6.18;1.65;;;;;;;-145.69;66.65;71314.84;5075742;28;20657;-76
2022/05/19 01:03:05;;;;;;;3.72;1.60;;;;;;;-145.69;66.75;71322.81;5075889;28;20611;-76
2022/05/19 01:05:35;;;;;;;5.28;1.65;;;;;;;-145.69;67.48;71322.81;5075954;28;20199;-76
2022/05/19 01:08:12;;;;;;;2.53;1.40;;;;;;;-145.69;67.68;71342.69;5075371;28;20726;-76
2022/05/19 01:10:38;;;;;;;6.05;1.60;;;;;;;-145.69;66.56;71344.69;5066433;28;20261;-75
2022/05/19 01:13:06;;;;;;;3.55;1.77;;;;;;;-145.69;68.20;71350.66;5055319;28;20235;-76
2022/05/19 01:15:34;;;;;;;5.35;1.60;;;;;;;-145.69;64.86;71334.75;5055651;28;20592;-76
2022/05/19 01:18:02;;;;;;;1.65;1.30;;;;;;;-145.69;66.41;71354.63;5055309;28;20711;-76
2022/05/19 01:20:29;;;;;;;2.60;1.80;;;;;;;-145.69;68.03;71380.50;5055195;28;20562;-76
2022/05/19 01:23:02;;;;;;;1.80;1.27;;;;;;;-145.69;67.60;71386.47;5055297;28;20662;-75
2022/05/19 01:25:38;;;;;;;7.60;1.60;;;;;;;-145.69;66.30;71382.50;5055555;28;20203;-76
2022/05/19 01:28:06;;;;;;;3.15;1.10;;;;;;;-145.69;64.54;71358.63;5067502;28;20561;-76
2022/05/19 01:30:33;;;;;;;5.00;1.63;;;;;;;-145.69;66.49;71362.59;5075221;28;20661;-76
2022/05/19 01:33:00;;;;;;;3.58;1.20;;;;;;;-145.69;67.50;71376.53;5072438;28;20311;-76
2022/05/19 01:35:32;;;;;;;1.90;1.33;;;;;;;-145.69;68.59;71400.41;5055228;28;20196;-76
2022/05/19 01:37:58;;;;;;;2.78;1.52;;;;;;;-145.69;69.93;71426.28;5063169;28;20671;-75
2022/05/19 01:40:36;;;;;;;2.55;1.58;;;;;;;-145.69;70.85;71446.16;5074720;28;20236;-75
2022/05/19 01:43:17;;;;;;;3.22;1.70;;;;;;;-145.69;73.23;71489.94;5075360;28;20209;-76
2022/05/19 01:45:56;;;;;;;3.78;1.73;;;;;;;-145.69;73.91;71505.88;5074998;28;20568;-76
2022/05/19 01:48:29;;;;;;;2.22;1.60;;;;;;;-145.69;73.10;71480.00;5074906;28;20310;-76
2022/05/19 01:51:00;;;;;;;4.85;1.60;;;;;;;-145.69;75.36;71533.72;5074718;28;20235;-76
2022/05/19 01:53:35;;;;;;;4.38;1.50;;;;;;;-145.69;76.58;71545.66;5074919;28;20639;-75
2022/05/19 01:56:07;;;;;;;2.42;1.63;;;;;;;-145.69;78.97;71571.53;5074815;28;20202;-76
2022/05/19 01:58:44;;;;;;;3.15;1.50;;;;;;;-145.69;79.02;71579.50;5074233;28;20198;-76
2022/05/19 02:01:11;;;;;;;2.00;1.48;;;;;;;-145.69;80.42;71585.47;5074487;28;20198;-76
2022/05/19 02:03:47;;;;;;;2.15;1.60;;;;;;;-145.69;81.28;71601.38;5074662;28;20211;-76
2022/05/19 02:06:18;;;;;;;2.17;1.50;;;;;;;-145.69;81.54;71621.28;5073824;28;20436;-76
2022/05/19 02:08:49;;;;;;;2.58;1.60;;;;;;;-145.69;83.81;71633.22;5074543;28;20215;-76
2022/05/19 02:11:21;;;;;;;3.13;1.50;;;;;;;-145.69;83.11;71637.19;5074413;28;20534;-76
2022/05/19 02:13:49;;;;;;;2.20;1.50;;;;;;;-145.69;82.35;71623.28;5074475;28;20542;-75
2022/05/19 02:16:16;;;;;;;2.97;1.50;;;;;;;-145.69;83.73;71631.25;5074356;28;20206;-76
2022/05/19 02:18:45;;;;;;;2.27;1.50;;;;;;;-145.69;84.25;71657.09;5074329;28;20557;-76
2022/05/19 02:21:11;;;;;;;2.60;1.57;;;;;;;-145.69;84.19;71641.19;5074371;28;20535;-75
2022/05/19 02:23:40;;;;;;;4.47;1.90;;;;;;;-145.69;84.41;71647.16;5074330;28;20208;-75
2022/05/19 02:26:07;;;;;;;4.00;1.70;;;;;;;-145.69;85.26;71637.19;5073947;28;20202;-76
2022/05/19 02:28:39;;;;;;;2.23;1.63;;;;;;;-145.69;85.96;71641.19;5073789;28;20199;-76
2022/05/19 02:31:07;;;;;;;3.73;1.70;;;;;;;-145.69;86.61;71665.06;5074107;28;20191;-76
2022/05/19 02:33:34;;;;;;;4.07;1.87;;;;;;;-145.69;85.32;71655.13;5073949;28;20280;-76
2022/05/19 02:36:01;;;;;;;2.07;1.60;;;;;;;-145.69;86.66;71671.03;5073973;28;20198;-76
2022/05/19 02:38:28;;;;;;;4.23;1.80;;;;;;;-145.69;86.78;71659.09;5073720;28;20268;-76
2022/05/19 02:40:54;;;;;;;3.75;1.65;;;;;;;-145.69;87.28;71647.16;5073890;28;20199;-76
2022/05/19 02:43:21;;;;;;;4.70;2.30;;;;;;;-145.69;86.37;71621.28;5074039;28;20600;-76
2022/05/19 02:45:48;;;;;;;2.30;1.80;;;;;;;-145.69;84.48;71605.38;5073801;28;20194;-76
2022/05/19 02:48:16;;;;;;;4.57;1.90;;;;;;;-145.69;83.74;71595.41;5073555;28;20600;-76
2022/05/19 02:50:45;;;;;;;7.07;2.70;;;;;;;-145.69;85.55;71603.38;5073461;28;20280;-76
2022/05/19 02:53:11;;;;;;;3.20;1.90;;;;;;;-145.69;85.71;71613.31;5072652;28;20603;-76
2022/05/19 02:55:38;;;;;;;2.63;1.73;;;;;;;-145.69;85.53;71617.31;5073475;28;20619;-76
2022/05/19 02:58:05;;;;;;;3.15;2.00;;;;;;;-145.69;86.74;71635.22;5073376;28;20194;-76
2022/05/19 03:00:32;;;;;;;2.80;1.90;;;;;;;-145.69;87.92;71645.16;5073356;28;20195;-76
2022/05/19 03:02:58;;;;;;;5.93;2.33;;;;;;;-145.69;88.36;71643.19;5071371;28;20600;-75
2022/05/19 03:05:28;;;;;;;4.40;2.20;;;;;;;-145.69;88.97;71637.19;5071915;28;20426;-76
2022/05/19 03:07:55;;;;;;;3.20;2.25;;;;;;;-145.69;89.33;71643.19;5073575;28;20221;-75
2022/05/19 03:10:23;;;;;;;3.28;1.90;;;;;;;-145.69;89.38;71637.19;5073188;28;20199;-76
2022/05/19 03:12:50;;;;;;;7.78;2.25;;;;;;;-145.69;88.29;71613.31;5072174;28;20961;-76
2022/05/19 03:15:16;;;;;;;3.38;2.15;;;;;;;-145.69;89.21;71617.31;5069684;28;20260;-76
2022/05/19 03:17:43;;;;;;;6.97;2.57;;;;;;;-145.69;89.48;71617.31;5073100;28;20305;-76
2022/05/19 03:20:12;;;;;;;3.13;1.90;;;;;;;-145.69;88.91;71597.41;5073100;28;20203;-76
2022/05/19 03:22:40;;;;;;;5.63;2.13;;;;;;;-145.69;88.58;71599.41;5073320;28;20280;-76
2022/05/19 03:25:08;;;;;;;7.70;2.57;;;;;;;-145.69;89.72;71617.31;5073314;28;20226;-76
2022/05/19 03:27:35;;;;;;;3.73;2.07;;;;;;;-145.69;90.80;71625.25;5072976;28;20649;-76
2022/05/19 03:30:02;;;;;;;4.67;2.27;;;;;;;-145.69;91.25;71621.28;5073121;28;20565;-75
2022/05/19 03:32:28;;;;;;;4.80;2.20;;;;;;;-145.69;90.14;71613.31;5072969;28;20248;-76
2022/05/19 03:34:55;;;;;;;3.23;2.10;;;;;;;-145.69;89.06;71609.34;5072951;28;20297;-76
2022/05/19 03:37:21;;;;;;;2.43;2.10;;;;;;;-145.69;89.96;71631.25;5072921;28;20656;-76
2022/05/19 03:39:49;;;;;;;6.53;2.60;;;;;;;-145.69;91.13;71657.09;5073055;28;20205;-76
2022/05/19 03:42:16;;;;;;;3.03;2.20;;;;;;;-145.69;95.51;71682.97;5072768;28;20298;-76
2022/05/19 03:44:42;;;;;;;4.13;2.23;;;;;;;-145.69;96.12;71692.94;5072925;28;20257;-75
2022/05/19 03:47:09;;;;;;;3.67;2.10;;;;;;;-145.69;97.35;71714.81;5072838;28;20268;-76
2022/05/19 03:49:36;;;;;;;4.23;2.70;;;;;;;-145.69;98.61;71736.72;5072971;28;20207;-76
2022/05/19 03:52:04;;;;;;;4.87;2.77;;;;;;;-145.69;100.00;71732.72;5072790;28;20711;-75
2022/05/19 03:54:30;;;;;;;3.37;2.07;;;;;;;-145.69;97.75;71692.94;5072840;28;20253;-76
2022/05/19 03:56:58;;;;;;;5.17;2.30;;;;;;;-145.69;96.07;71661.09;5072834;28;20211;-76
2022/05/19 03:59:24;;;;;;;7.03;2.83;;;;;;;-145.69;94.94;71645.16;5072814;28;20281;-75
2022/05/19 04:01:51;;;;;;;4.97;2.40;;;;;;;-145.69;96.33;71653.13;5072291;28;20216;-76
2022/05/19 04:04:18;;;;;;;4.73;2.70;;;;;;;-145.69;97.49;71673.03;5075099;28;20750;-76
2022/05/19 04:06:44;;;;;;;4.23;2.67;;;;;;;-145.69;99.08;71673.03;5076896;28;20203;-76
2022/05/19 04:09:11;;;;;;;3.83;2.40;;;;;;;-145.69;99.89;71682.97;5076912;28;20202;-76
2022/05/19 04:11:37;;;;;;;5.63;2.30;;;;;;;-145.69;100.00;71690.94;5076804;28;20207;-76
2022/05/19 04:14:05;;;;;;;7.90;2.73;;;;;;;-145.69;100.00;71700.88;5076352;28;20254;-76
2022/05/19 04:16:31;;;;;;;6.33;2.80;;;;;;;-145.69;100.00;71696.91;5076478;28;20206;-75
2022/05/19 04:18:58;;;;;;;5.07;2.30;;;;;;;-145.69;100.00;71688.94;5076750;28;20209;-76
2022/05/19 04:21:24;;;;;;;4.80;2.57;;;;;;;-145.69;100.00;71690.94;5076464;28;20252;-76
2022/05/19 04:23:51;;;;;;;4.23;2.87;;;;;;;-145.69;100.00;71686.97;5076532;28;20260;-75
2022/05/19 04:26:17;;;;;;;5.47;2.63;;;;;;;-145.69;100.00;71679.00;5076442;28;20263;-75
2022/05/19 04:28:43;;;;;;;6.80;2.63;;;;;;;-145.69;100.00;71684.97;5076355;28;20199;-76
2022/05/19 04:31:11;;;;;;;4.20;2.40;;;;;;;-145.69;100.00;71684.97;5076206;28;20202;-76
2022/05/19 04:33:39;;;;;;;3.83;2.73;;;;;;;-145.69;100.00;71677.00;5076379;28;20284;-76
2022/05/19 04:36:05;;;;;;;6.80;2.73;;;;;;;-145.69;100.00;71657.09;5076126;28;20194;-75
2022/05/19 04:38:32;;;;;;;3.37;2.70;;;;;;;-145.69;100.00;71641.19;5076114;28;20277;-75
2022/05/19 04:41:01;;;;;;;4.33;2.77;;;;;;;-145.69;100.00;71633.22;5076130;28;20194;-75
2022/05/19 04:43:28;;;;;;;8.00;2.43;;;;;;;-145.69;99.20;71615.31;5076037;28;20207;-75
2022/05/19 04:45:56;;;;;;;5.22;2.70;;;;;;;-145.69;99.09;71613.31;5075290;28;20430;-76
2022/05/19 04:48:25;;;;;;;4.82;2.63;;;;;;;-145.69;99.52;71605.38;5076125;28;20205;-76
2022/05/19 04:50:52;;;;;;;5.32;2.70;;;;;;;-145.69;99.05;71599.41;5076018;28;20288;-76
2022/05/19 04:53:18;;;;;;;4.88;2.53;;;;;;;-145.69;98.92;71591.44;5075856;28;20268;-76
2022/05/19 04:55:45;;;;;;;5.50;2.63;;;;;;;-145.69;96.61;71571.53;5075946;28;20284;-76
2022/05/19 04:58:11;;;;;;;6.90;3.00;;;;;;;-145.69;95.66;71557.59;5075596;28;20719;-76
2022/05/19 05:00:38;;;;;;;6.43;2.72;;;;;;;-145.69;94.89;71553.63;5076084;28;20560;-76
2022/05/19 05:03:06;;;;;;;8.23;2.60;;;;;;;-145.69;94.34;71523.78;5075947;28;20662;-76
2022/05/19 05:05:34;;;;;;;3.53;2.47;;;;;;;-145.69;93.98;71525.78;5075651;28;20199;-76
2022/05/19 05:08:01;;;;;;;12.88;2.75;;;;;;;-145.69;94.50;71511.84;5055808;28;20235;-76
2022/05/19 05:10:27;;;;;;;5.07;2.38;;;;;;;-145.69;94.14;71509.84;5055864;28;20207;-76
2022/05/19 05:12:54;;;;;;;4.40;2.50;;;;;;;-145.69;93.21;71497.91;5057916;28;20261;-76
2022/05/19 05:15:20;;;;;;;6.32;2.45;;;;;;;-145.69;93.56;71482.00;5075073;28;20199;-76
2022/05/19 05:17:47;;;;;;;3.00;2.25;;;;;;;-145.69;93.19;71468.06;5066784;28;20378;-76
2022/05/19 05:20:14;;;;;;;4.78;2.40;;;;;;;-145.69;92.82;71450.16;5055518;28;20203;-76
2022/05/19 05:22:42;;;;;;;3.45;2.33;;;;;;;-145.69;93.45;71442.19;5066712;28;20198;-76
2022/05/19 05:25:12;;;;;;;4.00;2.55;;;;;;;-145.69;92.55;71426.28;5075373;28;20252;-76
2022/05/19 05:27:39;;;;;;;5.82;1.98;;;;;;;-145.69;91.70;71402.41;5075455;28;20211;-76
2022/05/19 05:30:06;;;;;;;4.50;2.63;;;;;;;-145.69;92.14;71384.47;5075458;28;20264;-76
2022/05/19 05:32:33;;;;;;;4.65;2.42;;;;;;;-145.69;88.28;71354.63;5074766;28;20194;-77
2022/05/19 05:34:59;;;;;;;7.20;2.20;;;;;;;-145.69;86.25;71326.78;5075159;28;20226;-76
2022/05/19 05:37:26;;;;;;;4.47;2.50;;;;;;;-145.69;84.83;71288.97;5074977;28;20286;-76
2022/05/19 05:39:54;;;;;;;4.35;2.00;;;;;;;-145.69;80.88;71215.34;5074903;28;20279;-76
2022/05/19 05:42:21;;;;;;;3.92;1.85;;;;;;;-145.69;78.89;71163.63;5075164;28;20280;-77
2022/05/19 05:44:48;;;;;;;3.17;2.38;;;;;;;-145.69;77.31;71131.78;5075222;28;20203;-77
2022/05/19 05:47:15;;;;;;;3.10;2.17;;;;;;;-145.69;74.37;71078.06;5075069;28;20198;-76
2022/05/19 05:49:41;;;;;;;3.33;1.70;;;;;;;-145.69;73.44;71056.16;5074929;28;20581;-76
2022/05/19 05:52:08;;;;;;;4.13;2.00;;;;;;;-145.69;73.08;71016.38;5074575;28;20820;-75
2022/05/19 05:54:35;;;;;;;6.65;2.10;;;;;;;-145.69;72.14;70990.50;5074651;28;20272;-76
2022/05/19 05:57:03;;;;;;;4.75;1.83;;;;;;;-145.69;71.89;70992.50;5074893;28;20566;-76
2022/05/19 05:59:30;;;;;;;2.33;1.63;;;;;;;-145.69;70.13;70936.78;5074618;28;20649;-76
2022/05/19 06:01:56;;;;;;;6.57;2.30;;;;;;;-145.69;71.31;70960.66;5073258;28;20446;-76
2022/05/19 06:04:23;;;;;;;9.07;2.25;;;;;;;-145.69;71.58;70924.84;5074597;28;20203;-76
2022/05/19 06:06:49;;;;;;;8.63;2.08;;;;;;;-145.69;70.72;70944.75;5074650;28;20202;-77
2022/05/19 06:09:16;;;;;;;5.57;2.03;;;;;;;-145.69;70.38;70920.88;5074738;28;20198;-76
2022/05/19 06:11:43;;;;;;;6.25;2.00;;;;;;;-145.69;71.83;70920.88;5074406;28;20203;-76
2022/05/19 06:14:11;;;;;;;6.25;1.73;;;;;;;-145.69;71.54;70920.88;5074530;28;20233;-76
2022/05/19 06:16:38;;;;;;;3.90;1.90;;;;;;;-145.69;70.28;70893.03;5074295;28;20294;-74
2022/05/19 06:19:05;;;;;;;3.78;1.65;;;;;;;-145.69;71.33;70875.13;5074254;28;20199;-74
2022/05/19 06:21:36;;;;;;;5.68;2.17;;;;;;;-145.69;68.79;70821.41;5074099;28;20293;-74
2022/05/19 06:24:04;;;;;;;6.53;1.83;;;;;;;-145.69;70.78;70803.50;5074429;28;20234;-74
2022/05/19 06:26:32;;;;;;;9.02;1.73;;;;;;;-145.69;69.12;70817.41;5073691;28;20703;-74
2022/05/19 06:28:59;;;;;;;4.97;1.88;;;;;;;-145.69;67.05;70741.81;5073710;28;20260;-77
2022/05/19 06:31:27;;;;;;;1.75;1.50;;;;;;;-145.69;66.88;70706.00;5074137;28;20275;-74
2022/05/19 06:33:53;;;;;;;2.05;1.38;;;;;;;-145.69;66.79;70709.97;5073642;28;20252;-74
2022/05/19 06:36:20;;;;;;;5.05;1.50;;;;;;;-145.69;66.53;70666.22;5073859;28;20260;-74
2022/05/19 06:38:47;;;;;;;3.83;1.48;;;;;;;-145.69;64.21;70634.38;5074064;28;20205;-74
2022/05/19 06:43:57;;;;;;;3.42;1.40;;;;;;;-145.69;62.29;70580.66;5073893;28;20221;-74
2022/05/19 06:46:24;;;;;;;3.58;1.70;;;;;;;-145.69;60.99;70570.72;5073451;28;20202;-74
2022/05/19 06:48:52;;;;;;;2.38;1.20;;;;;;;-145.69;61.55;70586.63;5073757;28;20653;-74
2022/05/19 06:51:19;;;;;;;4.07;1.63;;;;;;;-145.69;66.11;70614.47;5073580;28;20326;-74
2022/05/19 06:53:45;;;;;;;5.07;1.67;;;;;;;-145.69;61.21;70610.50;5073647;28;20226;-74
2022/05/19 06:56:12;;;;;;;5.63;1.70;;;;;;;-145.69;61.02;70580.66;5073626;28;20296;-74
2022/05/19 06:58:39;;;;;;;3.28;1.58;;;;;;;-145.69;59.54;70552.81;5073578;28;20207;-74
2022/05/19 07:01:06;;;;;;;2.95;1.85;;;;;;;-145.69;58.58;70574.69;5073448;28;20256;-74
2022/05/19 07:03:33;;;;;;;4.50;1.80;;;;;;;-145.69;59.82;70570.72;5073411;28;20199;-76
2022/05/19 07:06:00;;;;;;;4.75;1.77;;;;;;;-145.69;60.31;70566.75;5073621;28;20263;-74
2022/05/19 07:08:27;;;;;;;4.43;1.63;;;;;;;-145.69;57.68;70542.88;5073658;28;20221;-76
2022/05/19 07:10:53;;;;;;;3.78;2.00;;;;;;;-145.69;59.63;70550.81;5073577;28;20252;-76
2022/05/19 07:13:20;;;;;;;4.40;1.85;;;;;;;-145.69;58.94;70542.88;5073234;28;20252;-76
2022/05/19 07:15:46;;;;;;;3.03;1.95;;;;;;;-145.69;59.83;70526.94;5073140;28;20231;-76
2022/05/19 07:18:12;;;;;;;4.53;2.10;;;;;;;-145.69;59.93;70507.06;5073101;28;20263;-76
2022/05/19 07:20:44;;;;;;;9.25;2.50;;;;;;;-145.69;58.40;70499.09;5073294;28;20207;-76
2022/05/19 07:23:15;;;;;;;3.17;2.03;;;;;;;-145.69;55.84;70455.34;5071500;28;20209;-78
2022/05/19 07:25:43;;;;;;;6.05;2.15;;;;;;;-145.69;58.99;70457.31;5053155;28;20282;-76
2022/05/19 07:28:09;;;;;;;4.57;2.55;;;;;;;-145.69;52.91;70463.28;5053260;28;20237;-76
2022/05/19 07:30:36;;;;;;;4.53;2.03;;;;;;;-145.69;55.34;70471.25;5053256;28;20196;-76
2022/05/19 07:33:03;;;;;;;3.22;1.60;;;;;;;-145.69;55.24;70451.34;5066800;28;20286;-76
2022/05/19 07:35:29;;;;;;;5.05;1.80;;;;;;;-145.69;54.43;70433.44;5073098;28;20234;-76
2022/05/19 07:37:56;;;;;;;3.80;1.92;;;;;;;-145.69;52.07;70399.63;5072445;28;20596;-76
2022/05/19 07:40:24;;;;;;;6.38;2.20;;;;;;;-145.69;51.02;70419.53;5072926;28;20198;-76
2022/05/19 07:42:50;;;;;;;2.85;1.80;;;;;;;-145.69;52.25;70427.47;5072732;28;20207;-70
2022/05/19 07:45:18;;;;;;;4.55;1.98;;;;;;;-145.69;53.21;70393.66;5073033;28;20229;-76
2022/05/19 07:47:44;;;;;;;4.13;2.22;;;;;;;-145.69;54.22;70367.81;5073223;28;20289;-76
2022/05/19 07:50:11;;;;;;;4.90;2.03;;;;;;;-145.69;53.32;70365.81;5072762;28;20222;-76
2022/05/19 07:52:39;;;;;;;5.95;1.88;;;;;;;-145.69;51.73;70349.91;5072917;28;20225;-76
2022/05/19 07:55:07;;;;;;;4.75;1.92;;;;;;;-145.69;50.04;70383.72;5072527;28;20780;-77
2022/05/19 07:57:35;;;;;;;5.82;1.88;;;;;;;-145.69;51.20;70407.59;5072728;28;20672;-79
2022/05/19 08:00:02;;;;;;;4.55;1.60;;;;;;;-145.69;57.30;70375.75;5072714;28;20255;-77
2022/05/19 08:02:28;;;;;;;3.83;1.98;;;;;;;-145.69;52.97;70339.94;5072737;28;20199;-77
2022/05/19 08:04:55;;;;;;;6.30;2.33;;;;;;;-145.69;53.27;70335.97;5072286;28;20718;-77
2022/05/19 08:07:21;;;;;;;10.68;2.70;;;;;;;-145.69;53.16;70345.91;5072480;28;20241;-77
2022/05/19 08:15:36;;;;;;;5.00;2.25;;;;;;;-145.69;52.60;70282.25;5072362;28;20269;-78
2022/05/19 08:18:06;;;;;;;3.58;2.00;;;;;;;-145.69;47.93;70280.28;5072522;28;20213;-78
2022/05/19 08:20:36;;;;;;;13.52;2.40;;;;;;;-145.69;49.56;70308.13;5072754;28;20293;-78
2022/05/19 08:23:04;;;;;;;7.82;2.13;;;;;;;-145.69;49.10;70302.16;5072883;28;20202;-78
2022/05/19 08:25:30;;;;;;;3.67;1.90;;;;;;;-145.69;47.17;70312.09;5072763;28;20248;-79
2022/05/19 08:28:01;;;;;;;5.90;1.92;;;;;;;-145.69;45.62;70274.31;5072609;28;20206;-78
2022/05/19 08:30:29;;;;;;;5.20;2.13;;;;;;;-145.69;46.84;70294.19;5072412;28;20286;-77
2022/05/19 08:32:55;;;;;;;4.40;1.90;;;;;;;-145.69;45.32;70292.19;5072419;28;20214;-78
2022/05/19 08:35:22;;;;;;;6.32;2.25;;;;;;;-145.69;45.13;70280.28;5072329;28;20234;-79
2022/05/19 08:37:49;;;;;;;7.00;2.40;;;;;;;-145.69;48.78;70246.44;5072572;28;20240;-79
2022/05/19 08:40:17;;;;;;;10.15;2.28;;;;;;;-145.69;44.83;70248.44;5072519;28;20289;-79
2022/05/19 08:42:48;;;;;;;11.23;2.25;;;;;;;-145.69;45.93;70260.38;5072591;28;20202;-78
2022/05/19 08:45:21;;;;;;;6.28;2.45;;;;;;;-145.69;43.70;70250.44;5072314;28;20203;-77
2022/05/19 08:47:58;;;;;;;5.93;2.42;;;;;;;-145.69;44.72;70248.44;5072389;28;20194;-77
2022/05/19 08:50:31;;;;;;;5.97;2.15;;;;;;;-145.69;43.92;70272.31;5072673;28;20742;-77
2022/05/19 08:52:58;;;;;;;10.23;2.67;;;;;;;-145.69;43.69;70262.38;5075759;28;20198;-77
2022/05/19 08:55:25;;;;;;;5.55;2.50;;;;;;;-145.69;45.53;70278.28;5075846;28;20222;-77
2022/05/19 08:58:03;;;;;;;4.70;2.17;;;;;;;-145.69;46.83;70262.38;5075724;28;20203;-77
2022/05/19 09:00:35;;;;;;;5.93;2.33;;;;;;;-145.69;47.01;70264.34;5075748;28;20190;-78
2022/05/19 09:03:09;;;;;;;8.80;2.40;;;;;;;-145.69;45.67;70258.38;5076050;28;20241;-78
2022/05/19 09:05:51;;;;;;;3.97;2.13;;;;;;;-145.69;45.44;70240.47;5075621;28;20203;-79
2022/05/19 09:08:25;;;;;;;5.75;2.10;;;;;;;-145.69;44.07;70234.50;5075548;28;20202;-77
2022/05/19 09:11:07;;;;;;;7.65;2.15;;;;;;;-145.69;48.89;70230.53;5075057;28;20301;-77
2022/05/19 09:13:38;;;;;;;3.20;1.95;;;;;;;-145.69;45.03;70202.69;5075714;28;20198;-78
2022/05/19 09:16:11;;;;;;;5.75;2.30;;;;;;;-145.69;44.19;70228.53;5074732;28;20249;-77
2022/05/19 09:18:41;;;;;;;6.75;2.25;;;;;;;-145.69;46.45;70188.75;5075505;28;20195;-78
2022/05/19 09:21:08;;;;;;;6.40;2.20;;;;;;;-145.69;43.66;70190.75;5075603;28;20199;-77
2022/05/19 09:23:36;;;;;;;5.70;2.00;;;;;;;-145.69;43.15;70180.81;5074727;28;20442;-77
2022/05/19 09:26:19;;;;;;;4.70;2.30;;;;;;;-145.69;41.96;70164.88;5073444;28;20666;-77
2022/05/19 09:28:45;;;;;;;3.92;1.83;;;;;;;-145.69;42.84;70174.84;5073321;28;20198;-77
2022/05/19 09:31:13;;;;;;;3.38;2.10;;;;;;;-145.69;40.14;70184.78;5062391;28;20227;-78
2022/05/19 09:33:44;;;;;;;5.90;1.90;;;;;;;-145.69;43.22;70164.88;5053430;28;20245;-78
2022/05/19 09:36:14;;;;;;;7.82;2.17;;;;;;;-145.69;41.70;70184.78;5053083;28;20231;-77
2022/05/19 09:38:46;;;;;;;5.43;1.90;;;;;;;-145.69;39.96;70192.75;5053390;28;20254;-77
2022/05/19 09:41:23;;;;;;;10.77;2.03;;;;;;;-145.69;40.54;70190.75;5055253;28;20203;-77
2022/05/19 09:43:52;;;;;;;3.97;1.70;;;;;;;-145.69;38.97;70180.81;5055986;28;20261;-76
2022/05/19 09:46:19;;;;;;;10.25;2.08;;;;;;;-145.69;38.83;70180.81;5074967;28;20187;-78
2022/05/19 09:48:49;;;;;;;5.78;2.22;;;;;;;-145.69;40.11;70150.97;5075091;28;20202;-78
2022/05/19 09:51:17;;;;;;;7.43;1.80;;;;;;;-145.69;37.42;70172.84;5075143;28;20223;-78
2022/05/19 09:53:49;;;;;;;3.03;1.50;;;;;;;-145.69;38.01;70164.88;5075108;28;20210;-78
2022/05/19 09:56:19;;;;;;;7.32;2.08;;;;;;;-145.69;37.46;70174.84;5074964;28;20218;-79
2022/05/19 09:58:48;;;;;;;4.43;2.22;;;;;;;-145.69;36.09;70180.81;5074944;28;20199;-80
2022/05/19 10:01:21;;;;;;;4.03;1.70;;;;;;;-145.69;37.09;70186.78;5074512;28;20588;-78
2022/05/19 10:03:56;;;;;;;4.15;1.90;;;;;;;-145.69;36.42;70176.81;5074859;28;20199;-77
2022/05/19 10:06:25;;;;;;;5.97;1.65;;;;;;;-145.69;38.15;70164.88;5074525;28;20207;-78
2022/05/19 10:09:00;;;;;;;5.82;1.88;;;;;;;-145.69;37.46;70129.09;5074535;28;20680;-78
2022/05/19 10:11:29;;;;;;;5.75;2.00;;;;;;;-145.69;36.13;70129.09;5074587;28;20240;-79
2022/05/19 10:14:04;;;;;;;5.53;1.73;;;;;;;-145.69;34.93;70123.13;5074278;28;20211;-77
2022/05/19 10:16:43;;;;;;;3.85;1.90;;;;;;;-145.69;34.90;70147.00;5074355;28;20283;-78
2022/05/19 10:19:33;;;;;;;2.10;1.45;;;;;;;-145.69;37.90;70131.06;5074228;28;20202;-78
2022/05/19 10:22:18;;;;;;;6.90;1.83;;;;;;;-145.69;38.04;70109.19;5074290;28;20672;-78
2022/05/19 10:25:00;;;;;;;2.88;1.55;;;;;;;-145.69;36.21;70085.31;5074395;28;20203;-77
2022/05/19 10:33:16;;;;;;;10.50;1.85;;;;;;;-145.69;34.30;70109.19;5074081;28;20198;-77
2022/05/19 10:35:56;;;;;;;5.03;1.67;;;;;;;-145.69;35.29;70121.13;5073887;28;20233;-79
2022/05/19 10:38:43;;;;;;;5.28;1.85;;;;;;;-145.69;35.13;70121.13;5074081;28;20202;-76
2022/05/19 10:41:21;;;;;;;5.60;2.00;;;;;;;-145.69;38.22;70087.31;5074014;28;20252;-78
2022/05/19 10:44:03;;;;;;;3.78;1.52;;;;;;;-145.69;36.55;70075.38;5073650;28;20198;-77
2022/05/19 10:46:39;;;;;;;7.57;1.67;;;;;;;-145.69;36.74;70049.50;5073808;28;20652;-77
2022/05/19 10:49:22;;;;;;;5.55;1.80;;;;;;;-145.69;37.85;70041.56;5073653;28;20202;-77
2022/05/19 10:52:04;;;;;;;2.47;1.38;;;;;;;-145.69;34.32;70073.38;5073584;28;20226;-77
2022/05/19 10:54:48;;;;;;;3.25;1.73;;;;;;;-145.69;36.76;70047.53;5073655;28;20252;-78
2022/05/19 10:57:36;;;;;;;5.50;1.77;;;;;;;-145.69;36.29;70053.50;5073717;28;20207;-78
2022/05/19 11:00:15;;;;;;;5.95;1.88;;;;;;;-145.69;34.34;70063.44;5073761;28;20207;-77
2022/05/19 11:03:17;;;;;;;4.03;1.85;;;;;;;-145.69;33.84;70085.31;5073621;28;20206;-77
2022/05/19 11:05:49;;;;;;;7.05;1.90;;;;;;;-145.69;36.11;70047.53;5070347;28;20202;-79
2022/05/19 11:08:31;;;;;;;5.95;1.75;;;;;;;-145.69;35.18;70049.50;5073415;28;20256;-78
2022/05/19 11:11:05;;;;;;;5.15;2.00;;;;;;;-145.69;34.98;70041.56;5073429;28;20198;-77
2022/05/19 11:13:43;;;;;;;5.65;2.13;;;;;;;-145.69;34.08;70039.56;5072812;28;20202;-77
2022/05/19 11:16:18;;;;;;;8.73;1.88;;;;;;;-145.69;34.51;70033.59;5053300;28;20314;-78
2022/05/19 11:18:54;;;;;;;8.77;1.90;;;;;;;-145.69;34.11;70033.59;5053377;28;20239;-79
2022/05/19 11:21:27;;;;;;;5.05;2.05;;;;;;;-145.69;37.45;70009.72;5053238;28;20680;-78
2022/05/19 11:24:02;;;;;;;3.30;1.90;;;;;;;-145.69;34.31;70029.63;5053203;28;20199;-77
2022/05/19 11:26:35;;;;;;;6.35;1.90;;;;;;;-145.69;36.55;70021.66;5053379;28;20253;-78
2022/05/19 11:29:13;;;;;;;7.30;1.95;;;;;;;-145.69;34.21;70073.38;5055116;28;20662;-77
2022/05/19 11:31:45;;;;;;;4.57;1.77;;;;;;;-145.69;36.60;70027.63;5053105;28;20199;-77
2022/05/19 11:34:21;;;;;;;5.82;1.95;;;;;;;-145.69;33.45;70043.56;5052978;28;20214;-77
2022/05/19 11:36:54;;;;;;;5.15;1.90;;;;;;;-145.69;34.35;70029.63;5052566;28;20458;-78
2022/05/19 11:39:27;;;;;;;4.80;2.40;;;;;;;-145.69;37.53;69960.00;5052945;28;20704;-78
2022/05/19 11:41:58;;;;;;;7.00;1.95;;;;;;;-145.69;34.75;69965.97;5052872;28;20267;-78